createdAt,value
2019-03-29T00:02:07.526Z,18.60
2019-03-29T00:04:40.030Z,18.33
2019-03-29T00:07:12.448Z,19.07
2019-03-29T00:09:43.312Z,19.57
2019-03-29T00:12:15.420Z,18.70
2019-03-29T00:14:46.213Z,19.27
2019-03-29T00:17:17.924Z,19.40
2019-03-29T00:19:48.985Z,19.33
2019-03-29T00:22:19.379Z,19.40
2019-03-29T00:24:50.248Z,18.63
2019-03-29T00:27:21.023Z,18.60
2019-03-29T00:29:51.786Z,18.93
2019-03-29T00:32:22.583Z,19.27
2019-03-29T00:34:53.084Z,20.00
2019-03-29T00:37:23.915Z,19.50
2019-03-29T00:39:56.489Z,20.33
2019-03-29T00:42:27.334Z,19.17
2019-03-29T00:44:58.142Z,19.77
2019-03-29T00:47:29.380Z,20.37
2019-03-29T00:50:03.584Z,20.87
2019-03-29T00:52:34.333Z,20.20
2019-03-29T00:55:09.621Z,20.30
2019-03-29T00:57:40.430Z,19.67
2019-03-29T01:00:11.371Z,19.80
2019-03-29T01:02:41.935Z,20.33
2019-03-29T01:05:14.283Z,19.73
2019-03-29T01:07:45.209Z,21.43
2019-03-29T01:10:16.907Z,19.70
2019-03-29T01:12:47.751Z,19.87
2019-03-29T01:15:18.577Z,19.30
2019-03-29T01:17:49.127Z,19.43
2019-03-29T01:20:20.006Z,19.43
2019-03-29T01:22:50.748Z,19.23
2019-03-29T01:25:23.427Z,18.97
2019-03-29T01:27:54.167Z,18.53
2019-03-29T01:30:24.847Z,19.30
2019-03-29T01:32:55.645Z,19.30
2019-03-29T01:35:26.516Z,18.70
2019-03-29T01:37:57.183Z,18.30
2019-03-29T01:40:28.059Z,19.40
2019-03-29T01:42:58.915Z,20.87
2019-03-29T01:45:31.400Z,19.33
2019-03-29T01:48:02.195Z,18.83
2019-03-29T01:50:33.111Z,19.43
2019-03-29T01:53:03.854Z,19.53
2019-03-29T01:55:34.791Z,18.47
2019-03-29T01:58:05.564Z,18.03
2019-03-29T02:00:36.600Z,18.93
2019-03-29T02:03:07.336Z,18.17
2019-03-29T02:05:38.229Z,17.93
2019-03-29T02:08:08.973Z,17.97
2019-03-29T02:10:39.729Z,16.13
2019-03-29T02:13:10.702Z,17.47
2019-03-29T02:15:41.580Z,18.10
2019-03-29T02:18:12.310Z,18.33
2019-03-29T02:20:43.346Z,18.00
2019-03-29T02:23:14.022Z,17.23
2019-03-29T02:25:44.828Z,17.70
2019-03-29T02:28:15.621Z,17.93
2019-03-29T02:30:49.197Z,17.90
2019-03-29T02:33:20.816Z,19.23
2019-03-29T02:35:52.055Z,18.87
2019-03-29T02:38:23.746Z,18.93
2019-03-29T02:40:55.157Z,20.93
2019-03-29T02:43:25.941Z,19.97
2019-03-29T02:45:57.851Z,21.13
2019-03-29T02:48:29.336Z,21.30
2019-03-29T02:51:00.070Z,20.80
2019-03-29T02:53:30.591Z,22.13
2019-03-29T02:56:03.972Z,21.47
2019-03-29T02:58:34.935Z,23.20
2019-03-29T03:01:05.893Z,21.97
2019-03-29T03:03:36.727Z,22.13
2019-03-29T03:06:07.548Z,22.10
2019-03-29T03:08:38.440Z,22.67
2019-03-29T03:11:09.355Z,22.73
2019-03-29T03:13:40.306Z,22.90
2019-03-29T03:16:12.886Z,23.00
2019-03-29T03:18:43.999Z,23.10
2019-03-29T03:21:14.896Z,23.50
2019-03-29T03:23:45.747Z,25.03
2019-03-29T03:26:17.608Z,24.07
2019-03-29T03:28:48.465Z,22.80
2019-03-29T03:31:19.469Z,23.77
2019-03-29T03:33:50.339Z,26.33
2019-03-29T03:36:21.179Z,24.60
2019-03-29T03:38:52.083Z,27.00
2019-03-29T03:41:24.597Z,25.47
2019-03-29T03:43:55.298Z,25.37
2019-03-29T03:46:26.789Z,24.67
2019-03-29T03:48:57.261Z,25.60
2019-03-29T03:51:28.251Z,25.10
2019-03-29T03:53:59.157Z,25.20
2019-03-29T03:56:31.465Z,26.43
2019-03-29T03:59:03.155Z,26.17
2019-03-29T04:01:34.071Z,26.40
2019-03-29T04:04:04.908Z,25.77
2019-03-29T04:06:38.481Z,25.50
2019-03-29T04:09:08.923Z,28.67
2019-03-29T04:11:39.530Z,32.10
2019-03-29T04:14:10.371Z,27.90
2019-03-29T04:16:40.798Z,26.27
2019-03-29T04:19:11.271Z,26.80
2019-03-29T04:21:42.059Z,25.57
2019-03-29T04:24:12.993Z,25.53
2019-03-29T04:26:43.930Z,27.07
2019-03-29T04:29:14.389Z,25.30
2019-03-29T04:31:46.728Z,26.73
2019-03-29T04:34:17.562Z,26.70
2019-03-29T04:36:48.705Z,26.30
2019-03-29T04:39:19.540Z,24.17
2019-03-29T04:41:50.280Z,26.50
2019-03-29T04:44:22.545Z,26.63
2019-03-29T04:46:53.433Z,26.40
2019-03-29T04:49:24.348Z,25.77
2019-03-29T04:51:55.185Z,25.47
2019-03-29T04:54:25.639Z,24.80
2019-03-29T04:56:56.442Z,24.57
2019-03-29T04:59:27.345Z,24.53
2019-03-29T05:01:58.202Z,23.50
2019-03-29T05:04:28.982Z,25.33
2019-03-29T05:06:59.792Z,23.60
2019-03-29T05:09:30.506Z,22.80
2019-03-29T05:12:01.464Z,24.03
2019-03-29T05:14:31.973Z,23.77
2019-03-29T05:17:02.812Z,23.83
2019-03-29T05:19:33.647Z,22.33
2019-03-29T05:22:04.626Z,24.33
2019-03-29T05:24:35.418Z,25.70
2019-03-29T05:27:06.376Z,24.03
2019-03-29T05:29:37.364Z,23.03
2019-03-29T05:32:08.255Z,23.63
2019-03-29T05:34:39.116Z,25.17
2019-03-29T05:37:09.907Z,24.00
2019-03-29T05:39:40.795Z,24.50
2019-03-29T05:42:12.010Z,24.27
2019-03-29T05:44:42.849Z,23.30
2019-03-29T05:47:16.267Z,22.47
2019-03-29T05:49:47.082Z,23.87
2019-03-29T05:52:17.744Z,23.00
2019-03-29T05:54:48.756Z,24.10
2019-03-29T05:57:19.531Z,23.17
2019-03-29T05:59:52.728Z,24.47
2019-03-29T06:02:22.810Z,23.27
2019-03-29T06:04:53.732Z,22.90
2019-03-29T06:07:24.483Z,23.00
2019-03-29T06:09:55.429Z,23.43
2019-03-29T06:12:26.402Z,23.03
2019-03-29T06:14:57.323Z,22.30
2019-03-29T06:17:27.947Z,23.70
2019-03-29T06:19:58.767Z,25.57
2019-03-29T06:22:29.603Z,23.33
2019-03-29T06:25:00.445Z,23.87
2019-03-29T06:27:31.354Z,23.37
2019-03-29T06:30:02.090Z,23.60
2019-03-29T06:32:33.222Z,22.70
2019-03-29T06:35:06.471Z,22.67
2019-03-29T06:37:39.420Z,23.70
2019-03-29T06:40:13.450Z,22.60
2019-03-29T06:42:44.286Z,23.17
2019-03-29T06:45:15.223Z,23.17
2019-03-29T06:47:45.713Z,22.87
2019-03-29T06:50:16.465Z,23.90
2019-03-29T06:52:47.056Z,25.30
2019-03-29T06:55:18.265Z,24.90
2019-03-29T06:57:50.587Z,25.47
2019-03-29T07:00:22.836Z,26.03
2019-03-29T07:02:57.014Z,27.10
2019-03-29T07:05:27.857Z,25.90
2019-03-29T07:07:58.773Z,26.37
2019-03-29T07:10:29.311Z,26.70
2019-03-29T07:13:00.276Z,27.90
2019-03-29T07:15:32.196Z,28.57
2019-03-29T07:18:03.055Z,28.83
2019-03-29T07:20:33.920Z,30.50
2019-03-29T07:23:04.933Z,30.23
2019-03-29T07:25:57.249Z,28.80
2019-03-29T07:28:45.885Z,27.60
2019-03-29T07:31:16.817Z,26.70
2019-03-29T07:33:47.767Z,28.17
2019-03-29T07:36:21.333Z,28.37
2019-03-29T07:38:52.513Z,27.70
2019-03-29T07:41:31.765Z,29.33
2019-03-29T07:43:56.021Z,27.63
2019-03-29T07:46:27.975Z,26.87
2019-03-29T07:48:58.911Z,26.17
2019-03-29T07:51:29.871Z,26.00
2019-03-29T07:54:00.371Z,25.70
2019-03-29T07:56:31.082Z,25.80
2019-03-29T07:59:02.089Z,26.87
2019-03-29T08:01:32.885Z,25.93
2019-03-29T08:04:06.592Z,27.23
2019-03-29T08:06:41.594Z,26.07
2019-03-29T08:09:22.579Z,25.77
2019-03-29T08:11:55.116Z,25.63
2019-03-29T08:14:26.393Z,25.47
2019-03-29T08:16:57.256Z,24.70
2019-03-29T08:19:30.425Z,24.93
2019-03-29T08:22:01.297Z,25.07
2019-03-29T08:24:31.713Z,24.80
2019-03-29T08:27:02.516Z,24.60
2019-03-29T08:29:33.495Z,25.43
2019-03-29T08:32:06.255Z,23.43
2019-03-29T08:34:37.284Z,24.27
2019-03-29T08:37:08.155Z,21.87
2019-03-29T08:39:38.947Z,21.73
2019-03-29T08:42:09.456Z,22.63
2019-03-29T08:44:40.223Z,20.73
2019-03-29T08:47:11.051Z,21.70
2019-03-29T08:49:41.433Z,20.70
2019-03-29T08:52:12.459Z,21.33
2019-03-29T08:54:42.998Z,20.53
2019-03-29T08:57:15.325Z,21.50
2019-03-29T08:59:46.166Z,21.23
2019-03-29T09:02:16.999Z,20.90
2019-03-29T09:04:48.370Z,20.13
2019-03-29T09:07:19.167Z,20.57
2019-03-29T09:09:51.887Z,19.40
2019-03-29T09:12:22.899Z,21.07
2019-03-29T09:14:53.967Z,20.50
2019-03-29T09:17:24.573Z,21.20
2019-03-29T09:19:55.351Z,20.60
2019-03-29T09:22:26.065Z,20.27
2019-03-29T09:24:56.997Z,20.57
2019-03-29T09:27:27.940Z,19.27
2019-03-29T09:29:58.657Z,18.70
2019-03-29T09:32:29.573Z,18.73
2019-03-29T09:35:00.458Z,19.33
2019-03-29T09:37:32.969Z,19.47
2019-03-29T09:40:04.561Z,18.20
2019-03-29T09:42:35.463Z,17.57
2019-03-29T09:45:08.579Z,16.90
2019-03-29T09:47:40.697Z,16.60
2019-03-29T09:50:12.633Z,16.63
2019-03-29T09:52:43.666Z,16.43
2019-03-29T09:55:14.494Z,16.77
2019-03-29T09:57:45.628Z,16.23
2019-03-29T10:00:23.481Z,15.27
2019-03-29T10:02:54.233Z,14.07
2019-03-29T10:05:25.176Z,14.33
2019-03-29T10:07:55.951Z,14.47
2019-03-29T10:10:26.820Z,14.40
2019-03-29T10:12:57.286Z,13.17
2019-03-29T10:15:28.154Z,12.60
2019-03-29T10:17:59.050Z,12.40
2019-03-29T10:20:29.913Z,12.40
2019-03-29T10:23:00.967Z,11.70
2019-03-29T10:25:31.776Z,12.13
2019-03-29T10:28:02.688Z,10.87
2019-03-29T10:30:46.425Z,8.30
2019-03-29T10:33:16.189Z,9.23
2019-03-29T10:35:52.127Z,8.97
2019-03-29T10:38:19.460Z,10.17
2019-03-29T10:40:51.789Z,9.60
2019-03-29T10:43:22.626Z,8.63
2019-03-29T10:45:53.461Z,8.03
2019-03-29T10:48:24.298Z,7.70
2019-03-29T10:50:55.019Z,5.77
2019-03-29T10:53:28.576Z,6.23
2019-03-29T10:55:58.478Z,7.13
2019-03-29T10:58:29.791Z,7.37
2019-03-29T11:01:02.073Z,5.50
2019-03-29T11:03:32.783Z,2.63
2019-03-29T11:06:03.526Z,3.37
2019-03-29T11:08:34.374Z,4.93
2019-03-29T11:11:05.723Z,4.20
2019-03-29T11:13:36.482Z,3.87
2019-03-29T11:16:07.009Z,4.33
2019-03-29T11:18:39.602Z,4.40
2019-03-29T11:21:10.399Z,5.40
2019-03-29T11:23:41.442Z,5.00
2019-03-29T11:26:12.274Z,5.37
2019-03-29T11:28:43.111Z,4.93
2019-03-29T11:31:13.952Z,5.60
2019-03-29T11:33:44.780Z,4.70
2019-03-29T11:36:18.718Z,4.87
2019-03-29T11:38:51.044Z,5.17
2019-03-29T11:41:21.813Z,4.83
2019-03-29T11:43:52.826Z,5.03
2019-03-29T11:46:23.694Z,4.93
2019-03-29T11:48:54.594Z,5.33
2019-03-29T11:51:25.350Z,5.47
2019-03-29T11:53:56.237Z,5.47
2019-03-29T11:56:26.970Z,5.50
2019-03-29T11:58:59.399Z,5.87
2019-03-29T12:01:30.126Z,5.43
2019-03-29T12:04:01.020Z,5.28
2019-03-29T12:06:31.803Z,5.50
2019-03-29T12:09:02.678Z,5.60
2019-03-29T12:11:33.590Z,5.90
2019-03-29T12:14:05.234Z,6.17
2019-03-29T12:16:36.185Z,6.23
2019-03-29T12:19:07.122Z,6.50
2019-03-29T12:21:37.942Z,6.20
2019-03-29T12:24:08.412Z,6.03
2019-03-29T12:26:39.121Z,5.80
2019-03-29T12:29:10.161Z,5.97
2019-03-29T12:31:41.130Z,4.87
2019-03-29T12:34:11.670Z,5.27
2019-03-29T12:36:42.107Z,5.17
2019-03-29T12:39:12.982Z,4.83
2019-03-29T12:41:43.819Z,4.60
2019-03-29T12:44:17.525Z,4.60
2019-03-29T12:46:48.271Z,4.80
2019-03-29T12:49:19.275Z,5.00
2019-03-29T12:51:50.032Z,4.58
2019-03-29T12:54:20.867Z,4.93
2019-03-29T12:56:51.256Z,4.90
2019-03-29T12:59:22.097Z,4.80
2019-03-29T13:01:52.866Z,4.97
2019-03-29T13:04:23.604Z,5.00
2019-03-29T13:06:54.437Z,4.50
2019-03-29T13:09:25.389Z,4.90
2019-03-29T13:11:55.907Z,4.50
2019-03-29T13:14:26.743Z,4.50
2019-03-29T13:16:57.580Z,4.72
2019-03-29T13:19:29.940Z,4.40
2019-03-29T13:22:00.321Z,4.93
2019-03-29T13:24:31.239Z,5.03
2019-03-29T13:27:02.082Z,5.20
2019-03-29T13:29:32.560Z,4.83
2019-03-29T13:32:03.889Z,5.63
2019-03-29T13:34:34.787Z,5.50
2019-03-29T13:37:05.774Z,4.90
2019-03-29T13:39:36.657Z,5.37
2019-03-29T13:42:07.508Z,5.40
2019-03-29T13:44:38.392Z,5.27
2019-03-29T13:47:09.260Z,5.10
2019-03-29T13:49:40.112Z,4.97
2019-03-29T13:52:10.943Z,5.90
2019-03-29T13:54:41.780Z,6.53
2019-03-29T13:57:12.243Z,6.67
2019-03-29T13:59:43.012Z,6.23
2019-03-29T14:02:13.784Z,6.43
2019-03-29T14:04:44.507Z,6.83
2019-03-29T14:07:15.334Z,7.00
2019-03-29T14:09:46.212Z,6.83
2019-03-29T14:12:17.152Z,6.40
2019-03-29T14:14:47.950Z,6.30
2019-03-29T14:17:18.786Z,6.50
2019-03-29T14:19:49.640Z,6.50
2019-03-29T14:22:20.086Z,5.85
2019-03-29T14:24:53.896Z,7.43
2019-03-29T14:27:23.059Z,7.07
2019-03-29T14:30:04.361Z,8.20
2019-03-29T14:32:26.359Z,7.57
2019-03-29T14:34:56.851Z,7.57
2019-03-29T14:37:27.233Z,7.10
2019-03-29T14:39:57.960Z,7.20
2019-03-29T14:42:28.452Z,7.70
2019-03-29T14:44:59.310Z,7.40
2019-03-29T14:47:41.407Z,8.20
2019-03-29T14:50:02.855Z,7.87
2019-03-29T14:52:33.817Z,7.43
2019-03-29T14:55:06.956Z,8.13
2019-03-29T14:57:37.695Z,7.33
2019-03-29T15:00:10.493Z,7.30
2019-03-29T15:02:41.309Z,7.60
2019-03-29T15:05:12.349Z,7.97
2019-03-29T15:07:46.795Z,7.80
2019-03-29T15:10:25.899Z,7.57
2019-03-29T15:12:57.047Z,7.07
2019-03-29T15:15:27.980Z,7.37
2019-03-29T15:17:58.716Z,7.43
2019-03-29T15:20:29.566Z,7.43
2019-03-29T15:23:00.300Z,7.27
2019-03-29T15:25:31.144Z,7.50
2019-03-29T15:28:02.018Z,7.53
2019-03-29T15:30:32.903Z,7.30
2019-03-29T15:33:03.764Z,6.67
2019-03-29T15:35:34.800Z,6.87
2019-03-29T15:38:05.519Z,8.13
2019-03-29T15:40:35.942Z,6.70
2019-03-29T15:43:06.687Z,7.00
2019-03-29T15:45:37.535Z,6.90
2019-03-29T15:48:08.911Z,6.67
2019-03-29T15:50:40.733Z,6.63
2019-03-29T15:53:11.503Z,6.67
2019-03-29T15:55:41.915Z,7.20
2019-03-29T15:58:12.759Z,7.30
2019-03-29T16:00:43.659Z,6.37
2019-03-29T16:03:14.403Z,6.33
2019-03-29T16:05:48.284Z,6.57
2019-03-29T16:08:17.803Z,5.87
2019-03-29T16:10:48.673Z,6.03
2019-03-29T16:13:19.207Z,6.23
2019-03-29T16:15:50.165Z,6.27
2019-03-29T16:18:20.953Z,6.63
2019-03-29T16:20:51.922Z,6.37
2019-03-29T16:23:22.417Z,5.90
2019-03-29T16:25:53.160Z,6.30
2019-03-29T16:28:23.974Z,5.97
2019-03-29T16:30:54.926Z,5.90
2019-03-29T16:33:25.874Z,6.17
2019-03-29T16:35:56.762Z,6.70
2019-03-29T16:38:27.541Z,6.20
2019-03-29T16:40:58.478Z,10.43
2019-03-29T16:43:28.997Z,5.90
2019-03-29T16:46:01.504Z,7.60
2019-03-29T16:48:33.768Z,6.80
2019-03-29T16:51:04.590Z,6.83
2019-03-29T16:53:35.343Z,6.40
2019-03-29T16:56:05.926Z,6.67
2019-03-29T16:58:36.854Z,6.43
2019-03-29T17:01:07.845Z,7.53
2019-03-29T17:03:38.718Z,6.70
2019-03-29T17:06:11.359Z,7.17
2019-03-29T17:08:43.720Z,7.80
2019-03-29T17:11:14.596Z,6.70
2019-03-29T17:13:45.453Z,7.17
2019-03-29T17:16:29.473Z,7.13
2019-03-29T17:18:48.564Z,7.77
2019-03-29T17:21:19.446Z,6.70
2019-03-29T17:23:52.653Z,7.43
2019-03-29T17:26:22.905Z,6.70
2019-03-29T17:28:53.694Z,8.23
2019-03-29T17:31:24.522Z,8.10
2019-03-29T17:33:55.336Z,11.50
2019-03-29T17:36:26.170Z,8.60
2019-03-29T17:38:57.032Z,9.57
2019-03-29T17:41:27.918Z,7.77
2019-03-29T17:43:58.817Z,9.10
2019-03-29T17:46:29.696Z,8.73
2019-03-29T17:49:02.576Z,8.23
2019-03-29T17:51:33.514Z,9.87
2019-03-29T17:54:04.698Z,8.70
2019-03-29T17:56:35.494Z,9.00
2019-03-29T17:59:06.289Z,9.77
2019-03-29T18:01:39.270Z,10.40
2019-03-29T18:04:09.726Z,9.90
2019-03-29T18:06:40.596Z,10.57
2019-03-29T18:09:11.358Z,9.87
2019-03-29T18:11:42.284Z,8.77
2019-03-29T18:14:13.190Z,8.73
2019-03-29T18:16:44.036Z,8.87
2019-03-29T18:19:14.864Z,8.93
2019-03-29T18:21:45.751Z,9.57
2019-03-29T18:24:16.706Z,10.23
2019-03-29T18:26:47.528Z,8.50
2019-03-29T18:29:18.294Z,9.53
2019-03-29T18:31:49.027Z,10.20
2019-03-29T18:34:19.896Z,9.90
2019-03-29T18:36:52.078Z,11.13
2019-03-29T18:39:22.959Z,10.07
2019-03-29T18:41:53.888Z,9.77
2019-03-29T18:44:24.767Z,11.00
2019-03-29T18:46:55.567Z,10.37
2019-03-29T18:49:29.248Z,10.07
2019-03-29T18:52:00.039Z,10.13
2019-03-29T18:54:31.234Z,10.93
2019-03-29T18:57:02.106Z,10.83
2019-03-29T18:59:36.086Z,10.97
2019-03-29T19:02:07.072Z,11.70
2019-03-29T19:04:37.882Z,11.53
2019-03-29T19:07:08.647Z,11.23
2019-03-29T19:09:39.080Z,11.07
2019-03-29T19:12:09.914Z,10.70
2019-03-29T19:14:41.776Z,11.67
2019-03-29T19:17:12.793Z,11.07
2019-03-29T19:19:43.517Z,10.00
2019-03-29T19:22:14.444Z,10.23
2019-03-29T19:24:45.303Z,10.80
2019-03-29T19:27:16.346Z,10.87
2019-03-29T19:29:47.268Z,11.17
2019-03-29T19:32:17.729Z,12.83
2019-03-29T19:34:48.431Z,11.27
2019-03-29T19:37:19.171Z,12.23
2019-03-29T19:39:49.953Z,11.97
2019-03-29T19:42:20.740Z,11.87
2019-03-29T19:44:51.479Z,11.60
2019-03-29T19:47:22.409Z,13.10
2019-03-29T19:49:55.297Z,12.73
2019-03-29T19:52:25.837Z,13.87
2019-03-29T19:55:01.181Z,13.77
2019-03-29T19:57:30.806Z,14.23
2019-03-29T20:00:01.639Z,15.83
2019-03-29T20:02:32.635Z,13.13
2019-03-29T20:05:03.155Z,12.47
2019-03-29T20:07:35.481Z,13.63
2019-03-29T20:10:07.659Z,12.90
2019-03-29T20:12:38.476Z,12.37
2019-03-29T20:15:09.419Z,13.63
2019-03-29T20:17:40.264Z,13.23
2019-03-29T20:20:14.395Z,12.80
2019-03-29T20:22:45.209Z,13.77
2019-03-29T20:25:15.832Z,14.20
2019-03-29T20:27:46.337Z,13.83
2019-03-29T20:30:17.227Z,13.07
2019-03-29T20:32:48.348Z,13.27
2019-03-29T20:35:31.750Z,13.40
2019-03-29T20:38:04.155Z,14.30
2019-03-29T20:40:34.981Z,13.47
2019-03-29T20:43:09.004Z,15.23
2019-03-29T20:45:39.087Z,15.50
2019-03-29T20:48:11.602Z,14.40
2019-03-29T20:50:42.419Z,14.07
2019-03-29T20:53:12.912Z,12.80
2019-03-29T20:55:43.873Z,13.33
2019-03-29T20:58:14.704Z,12.30
2019-03-29T21:00:45.219Z,12.73
2019-03-29T21:03:15.966Z,12.73
2019-03-29T21:05:46.808Z,13.93
2019-03-29T21:08:17.743Z,12.43
2019-03-29T21:10:56.080Z,12.90
2019-03-29T21:13:25.723Z,13.13
2019-03-29T21:15:56.675Z,12.47
2019-03-29T21:18:38.891Z,11.10
2019-03-29T21:21:09.687Z,12.43
2019-03-29T21:23:40.537Z,12.00
2019-03-29T21:26:11.346Z,12.50
2019-03-29T21:28:41.927Z,11.43
2019-03-29T21:31:14.507Z,10.60
2019-03-29T21:33:45.975Z,11.07
2019-03-29T21:36:18.159Z,10.33
2019-03-29T21:38:48.995Z,10.47
2019-03-29T21:41:24.218Z,11.43
2019-03-29T21:43:55.311Z,10.77
2019-03-29T21:46:28.771Z,10.20
2019-03-29T21:49:00.273Z,9.47
2019-03-29T21:51:31.663Z,9.93
2019-03-29T21:54:02.575Z,9.67
2019-03-29T21:56:34.833Z,8.90
2019-03-29T21:59:08.812Z,9.20
2019-03-29T22:01:39.763Z,9.23
2019-03-29T22:04:12.357Z,8.40
2019-03-29T22:06:43.507Z,8.87
2019-03-29T22:09:14.301Z,9.20
2019-03-29T22:11:47.910Z,12.60
2019-03-29T22:14:18.735Z,21.17
2019-03-29T22:16:49.733Z,9.70
2019-03-29T22:19:20.811Z,9.57
2019-03-29T22:21:51.665Z,9.87
2019-03-29T22:24:22.596Z,9.03
2019-03-29T22:26:53.481Z,8.77
2019-03-29T22:29:24.409Z,8.80
2019-03-29T22:31:54.987Z,8.60
2019-03-29T22:34:27.480Z,8.57
2019-03-29T22:37:03.040Z,7.83
2019-03-29T22:39:33.965Z,9.57
2019-03-29T22:42:06.410Z,11.10
2019-03-29T22:44:38.413Z,8.93
2019-03-29T22:47:09.251Z,10.00
2019-03-29T22:49:40.078Z,9.80
2019-03-29T22:52:11.041Z,9.17
2019-03-29T22:54:41.925Z,9.40
2019-03-29T22:57:12.886Z,9.40
2019-03-29T22:59:43.769Z,9.17
2019-03-29T23:02:16.359Z,9.67
2019-03-29T23:04:47.207Z,9.50
2019-03-29T23:07:18.101Z,8.60
2019-03-29T23:09:48.938Z,9.37
2019-03-29T23:12:19.754Z,8.87
2019-03-29T23:14:50.507Z,8.50
2019-03-29T23:17:21.341Z,9.10
2019-03-29T23:19:52.214Z,8.77
2019-03-29T23:22:24.159Z,8.70
2019-03-29T23:24:54.972Z,8.43
2019-03-29T23:27:25.922Z,8.40
2019-03-29T23:29:56.889Z,7.93
2019-03-29T23:32:27.615Z,7.60
2019-03-29T23:34:58.556Z,8.20
2019-03-29T23:37:29.090Z,7.97
2019-03-29T23:40:01.184Z,7.90
2019-03-29T23:42:32.030Z,8.10
2019-03-29T23:45:06.392Z,8.57
2019-03-29T23:47:40.951Z,7.67
2019-03-29T23:50:12.121Z,7.73
2019-03-29T23:52:43.971Z,7.47
2019-03-29T23:55:18.023Z,7.63
2019-03-29T23:57:52.016Z,8.37
